createdAt,value
2019-03-08T00:00:04.154Z,0.00
2019-03-08T00:01:04.159Z,0.00
2019-03-08T00:02:04.180Z,0.00
2019-03-08T00:03:04.208Z,0.00
2019-03-08T00:04:04.232Z,0.00
2019-03-08T00:05:04.267Z,0.00
2019-03-08T00:06:04.286Z,0.00
2019-03-08T00:07:04.302Z,0.00
2019-03-08T00:08:04.330Z,0.00
2019-03-08T00:09:04.358Z,0.00
2019-03-08T00:10:04.376Z,0.00
2019-03-08T00:11:04.420Z,0.00
2019-03-08T00:12:04.425Z,0.00
2019-03-08T00:13:05.411Z,0.00
2019-03-08T00:14:04.470Z,0.00
2019-03-08T00:15:04.497Z,0.00
2019-03-08T00:16:04.520Z,0.00
2019-03-08T00:17:04.560Z,0.00
2019-03-08T00:18:04.587Z,0.00
2019-03-08T00:19:04.595Z,0.00
2019-03-08T00:20:04.619Z,0.00
2019-03-08T00:21:04.647Z,0.00
2019-03-08T00:22:04.672Z,0.00
2019-03-08T00:23:04.696Z,0.00
2019-03-08T00:24:04.712Z,0.00
2019-03-08T00:25:04.735Z,0.00
2019-03-08T00:26:04.762Z,0.00
2019-03-08T00:27:04.788Z,0.00
2019-03-08T00:28:04.828Z,0.00
2019-03-08T00:29:04.834Z,0.00
2019-03-08T00:30:04.856Z,0.00
2019-03-08T00:31:04.881Z,0.00
2019-03-08T00:32:04.907Z,0.00
2019-03-08T00:33:04.931Z,0.00
2019-03-08T00:34:04.952Z,0.00
2019-03-08T00:35:04.977Z,0.00
2019-03-08T00:36:05.007Z,0.00
2019-03-08T00:37:05.031Z,0.00
2019-03-08T00:38:05.055Z,0.00
2019-03-08T00:39:05.074Z,0.00
2019-03-08T00:40:05.105Z,0.00
2019-03-08T00:41:05.125Z,0.00
2019-03-08T00:42:05.153Z,0.00
2019-03-08T00:43:05.170Z,0.00
2019-03-08T00:44:05.197Z,0.00
2019-03-08T00:45:05.219Z,0.00
2019-03-08T00:46:05.241Z,0.00
2019-03-08T00:47:05.271Z,0.00
2019-03-08T00:48:05.291Z,0.00
2019-03-08T00:49:05.318Z,0.00
2019-03-08T00:50:05.340Z,0.00
2019-03-08T00:51:05.364Z,0.00
2019-03-08T00:52:05.389Z,0.00
2019-03-08T00:53:05.415Z,0.00
2019-03-08T00:54:05.445Z,0.00
2019-03-08T00:55:05.478Z,0.00
2019-03-08T00:56:05.483Z,0.00
2019-03-08T00:57:05.506Z,0.00
2019-03-08T00:58:05.539Z,0.00
2019-03-08T00:59:05.557Z,0.00
2019-03-08T01:00:05.581Z,0.00
2019-03-08T01:01:05.601Z,0.00
2019-03-08T01:02:05.629Z,0.00
2019-03-08T01:03:05.681Z,0.00
2019-03-08T01:04:05.681Z,0.00
2019-03-08T01:05:05.698Z,0.00
2019-03-08T01:06:05.722Z,0.00
2019-03-08T01:07:05.752Z,0.00
2019-03-08T01:08:05.779Z,0.00
2019-03-08T01:09:05.801Z,0.00
2019-03-08T01:10:05.821Z,0.00
2019-03-08T01:11:05.861Z,0.00
2019-03-08T01:12:05.868Z,0.00
2019-03-08T01:13:05.889Z,0.00
2019-03-08T01:14:05.920Z,0.00
2019-03-08T01:15:05.944Z,0.00
2019-03-08T01:16:05.962Z,0.00
2019-03-08T01:17:05.986Z,0.00
2019-03-08T01:18:06.010Z,0.00
2019-03-08T01:19:06.034Z,0.00
2019-03-08T01:20:06.058Z,0.00
2019-03-08T01:21:06.089Z,0.00
2019-03-08T01:22:06.106Z,0.00
2019-03-08T01:23:06.130Z,0.00
2019-03-08T01:24:06.160Z,0.00
2019-03-08T01:25:06.180Z,0.00
2019-03-08T01:26:06.202Z,0.00
2019-03-08T01:27:06.241Z,0.00
2019-03-08T01:28:06.261Z,0.00
2019-03-08T01:29:06.283Z,0.00
2019-03-08T01:30:06.300Z,0.00
2019-03-08T01:31:06.323Z,0.00
2019-03-08T01:32:06.346Z,0.00
2019-03-08T01:33:06.371Z,0.00
2019-03-08T01:34:06.393Z,0.00
2019-03-08T01:35:06.421Z,0.00
2019-03-08T01:36:06.442Z,0.00
2019-03-08T01:37:06.466Z,0.00
2019-03-08T01:38:06.489Z,0.00
2019-03-08T01:39:06.564Z,0.00
2019-03-08T01:40:06.538Z,0.00
2019-03-08T01:41:06.562Z,0.00
2019-03-08T01:42:06.587Z,0.00
2019-03-08T01:43:06.620Z,0.00
2019-03-08T01:44:06.656Z,0.00
2019-03-08T01:45:06.660Z,0.00
2019-03-08T01:46:06.683Z,0.00
2019-03-08T01:47:06.745Z,0.00
2019-03-08T01:48:06.729Z,0.00
2019-03-08T01:49:06.753Z,0.00
2019-03-08T01:50:06.780Z,0.00
2019-03-08T01:51:06.803Z,0.00
2019-03-08T01:52:06.828Z,0.00
2019-03-08T01:53:06.859Z,0.00
2019-03-08T01:54:06.875Z,0.00
2019-03-08T01:55:06.907Z,0.00
2019-03-08T01:56:06.925Z,0.00
2019-03-08T01:57:06.946Z,0.00
2019-03-08T01:58:06.972Z,0.00
2019-03-08T01:59:06.998Z,0.00
2019-03-08T02:00:07.031Z,0.00
2019-03-08T02:01:07.041Z,0.00
2019-03-08T02:02:07.069Z,0.00
2019-03-08T02:03:07.089Z,0.00
2019-03-08T02:04:07.119Z,0.00
2019-03-08T02:05:07.138Z,0.00
2019-03-08T02:06:07.180Z,0.00
2019-03-08T02:07:07.189Z,0.00
2019-03-08T02:08:07.213Z,0.00
2019-03-08T02:09:07.257Z,0.00
2019-03-08T02:10:07.258Z,0.00
2019-03-08T02:11:07.282Z,0.00
2019-03-08T02:12:07.309Z,0.00
2019-03-08T02:13:07.337Z,0.00
2019-03-08T02:14:07.362Z,0.00
2019-03-08T02:15:07.380Z,0.00
2019-03-08T02:16:07.403Z,0.00
2019-03-08T02:17:07.425Z,0.00
2019-03-08T02:18:07.452Z,0.00
2019-03-08T02:19:07.478Z,0.00
2019-03-08T02:20:07.497Z,0.00
2019-03-08T02:21:07.538Z,0.00
2019-03-08T02:22:07.544Z,0.00
2019-03-08T02:23:07.571Z,0.00
2019-03-08T02:24:07.594Z,0.00
2019-03-08T02:25:07.615Z,0.00
2019-03-08T02:26:07.645Z,0.00
2019-03-08T02:27:07.664Z,0.00
2019-03-08T02:28:08.615Z,0.00
2019-03-08T02:29:07.720Z,0.00
2019-03-08T02:30:07.739Z,0.00
2019-03-08T02:31:07.768Z,0.00
2019-03-08T02:32:07.786Z,0.00
2019-03-08T02:33:07.806Z,0.00
2019-03-08T02:34:07.834Z,0.00
2019-03-08T02:35:07.857Z,0.00
2019-03-08T02:36:07.890Z,0.00
2019-03-08T02:37:07.901Z,0.00
2019-03-08T02:38:07.929Z,0.00
2019-03-08T02:39:07.953Z,0.00
2019-03-08T02:40:07.981Z,0.00
2019-03-08T02:41:08.000Z,0.00
2019-03-08T02:42:08.031Z,0.00
2019-03-08T02:43:08.048Z,0.00
2019-03-08T02:44:08.081Z,0.00
2019-03-08T02:45:08.104Z,0.00
2019-03-08T02:46:08.117Z,0.00
2019-03-08T02:47:08.143Z,0.00
2019-03-08T02:48:08.164Z,0.00
2019-03-08T02:49:08.191Z,0.00
2019-03-08T02:50:08.221Z,0.00
2019-03-08T02:51:08.238Z,0.00
2019-03-08T02:52:08.262Z,0.00
2019-03-08T02:53:08.286Z,0.00
2019-03-08T02:54:08.316Z,0.00
2019-03-08T02:55:08.334Z,0.00
2019-03-08T02:56:08.357Z,0.00
2019-03-08T02:57:08.386Z,0.00
2019-03-08T02:58:08.405Z,0.00
2019-03-08T02:59:08.429Z,0.00
2019-03-08T03:00:08.451Z,0.00
2019-03-08T03:01:08.476Z,0.00
2019-03-08T03:02:08.500Z,0.00
2019-03-08T03:03:08.525Z,0.00
2019-03-08T03:04:08.552Z,0.00
2019-03-08T03:05:08.569Z,0.00
2019-03-08T03:06:08.603Z,0.00
2019-03-08T03:07:08.619Z,0.00
2019-03-08T03:08:08.645Z,0.00
2019-03-08T03:09:08.666Z,0.00
2019-03-08T03:10:08.693Z,0.00
2019-03-08T03:11:08.765Z,0.00
2019-03-08T03:12:08.741Z,0.00
2019-03-08T03:13:08.759Z,0.00
2019-03-08T03:14:08.786Z,0.00
2019-03-08T03:15:08.810Z,0.00
2019-03-08T03:16:08.843Z,0.00
2019-03-08T03:17:08.862Z,0.00
2019-03-08T03:18:08.881Z,0.00
2019-03-08T03:19:08.910Z,0.00
2019-03-08T03:20:08.930Z,0.00
2019-03-08T03:21:08.959Z,0.00
2019-03-08T03:22:08.981Z,0.00
2019-03-08T03:23:08.998Z,0.00
2019-03-08T03:24:09.027Z,0.00
2019-03-08T03:25:09.049Z,0.00
2019-03-08T03:26:09.079Z,0.00
2019-03-08T03:27:09.103Z,0.00
2019-03-08T03:28:09.119Z,0.00
2019-03-08T03:29:09.139Z,0.00
2019-03-08T03:30:09.169Z,0.00
2019-03-08T03:31:09.191Z,0.00
2019-03-08T03:32:09.231Z,0.00
2019-03-08T03:33:09.276Z,0.00
2019-03-08T03:34:09.263Z,0.00
2019-03-08T03:35:09.285Z,0.00
2019-03-08T03:36:09.310Z,0.00
2019-03-08T03:37:09.334Z,0.00
2019-03-08T03:38:09.357Z,0.00
2019-03-08T03:39:09.382Z,0.00
2019-03-08T03:40:09.411Z,0.00
2019-03-08T03:41:09.432Z,0.00
2019-03-08T03:42:09.456Z,0.00
2019-03-08T03:43:09.479Z,0.00
2019-03-08T03:44:09.499Z,0.00
2019-03-08T03:45:09.521Z,0.00
2019-03-08T03:46:09.550Z,0.00
2019-03-08T03:47:09.579Z,0.00
2019-03-08T03:48:09.599Z,0.00
2019-03-08T03:49:09.618Z,0.00
2019-03-08T03:50:09.644Z,0.00
2019-03-08T03:51:09.668Z,0.00
2019-03-08T03:52:09.692Z,0.00
2019-03-08T03:53:09.713Z,0.00
2019-03-08T03:54:09.746Z,0.00
2019-03-08T03:55:09.765Z,0.00
2019-03-08T03:56:09.788Z,0.00
2019-03-08T03:57:09.809Z,0.00
2019-03-08T03:58:09.833Z,0.00
2019-03-08T03:59:09.860Z,0.00
2019-03-08T04:00:11.759Z,0.00
2019-03-08T04:01:09.908Z,0.00
2019-03-08T04:02:09.931Z,0.00
2019-03-08T04:03:09.955Z,0.00
2019-03-08T04:04:09.978Z,0.00
2019-03-08T04:05:10.009Z,0.00
2019-03-08T04:06:10.033Z,0.00
2019-03-08T04:07:10.050Z,0.00
2019-03-08T04:08:10.073Z,0.00
2019-03-08T04:09:10.095Z,0.00
2019-03-08T04:10:10.124Z,0.00
2019-03-08T04:11:10.150Z,0.00
2019-03-08T04:12:10.172Z,0.00
2019-03-08T04:13:10.196Z,0.00
2019-03-08T04:14:10.216Z,0.00
2019-03-08T04:15:10.240Z,0.00
2019-03-08T04:16:10.270Z,0.00
2019-03-08T04:17:10.287Z,0.00
2019-03-08T04:18:10.312Z,0.00
2019-03-08T04:19:10.335Z,0.00
2019-03-08T04:20:10.360Z,0.00
2019-03-08T04:21:10.385Z,0.00
2019-03-08T04:22:10.407Z,0.00
2019-03-08T04:23:10.432Z,0.00
2019-03-08T04:24:10.457Z,0.00
2019-03-08T04:25:10.481Z,0.00
2019-03-08T04:26:10.507Z,0.00
2019-03-08T04:27:10.530Z,0.00
2019-03-08T04:28:10.552Z,0.00
2019-03-08T04:29:10.577Z,0.00
2019-03-08T04:30:10.599Z,0.00
2019-03-08T04:31:10.628Z,0.00
2019-03-08T04:32:10.655Z,0.00
2019-03-08T04:33:10.677Z,0.00
2019-03-08T04:34:10.693Z,0.00
2019-03-08T04:35:10.721Z,0.00
2019-03-08T04:36:10.745Z,0.00
2019-03-08T04:37:10.769Z,0.00
2019-03-08T04:38:10.810Z,0.00
2019-03-08T04:39:10.816Z,0.00
2019-03-08T04:40:10.845Z,0.00
2019-03-08T04:41:10.867Z,0.00
2019-03-08T04:42:10.888Z,0.00
2019-03-08T04:43:10.912Z,0.00
2019-03-08T04:44:10.944Z,0.00
2019-03-08T04:45:10.961Z,0.00
2019-03-08T04:46:10.990Z,0.00
2019-03-08T04:47:11.008Z,0.00
2019-03-08T04:48:11.037Z,0.00
2019-03-08T04:49:11.052Z,0.00
2019-03-08T04:50:11.077Z,0.00
2019-03-08T04:51:11.102Z,0.00
2019-03-08T04:52:11.136Z,0.00
2019-03-08T04:53:11.162Z,0.00
2019-03-08T04:54:11.176Z,0.00
2019-03-08T04:55:11.204Z,0.00
2019-03-08T04:56:11.224Z,0.00
2019-03-08T04:57:11.246Z,0.00
2019-03-08T04:58:11.281Z,0.00
2019-03-08T04:59:11.296Z,0.00
2019-03-08T05:00:11.324Z,0.00
2019-03-08T05:01:11.346Z,0.00
2019-03-08T05:02:11.373Z,0.00
2019-03-08T05:03:11.393Z,0.00
2019-03-08T05:04:11.436Z,0.00
2019-03-08T05:05:11.440Z,0.00
2019-03-08T05:06:11.463Z,0.00
2019-03-08T05:07:11.487Z,0.00
2019-03-08T05:08:11.513Z,0.00
2019-03-08T05:09:11.539Z,0.00
2019-03-08T05:10:11.615Z,0.00
2019-03-08T05:11:11.585Z,0.00
2019-03-08T05:12:11.616Z,0.00
2019-03-08T05:13:11.637Z,0.00
2019-03-08T05:14:11.657Z,0.00
2019-03-08T05:15:11.688Z,0.00
2019-03-08T05:16:11.705Z,0.00
2019-03-08T05:17:11.728Z,0.00
2019-03-08T05:18:11.758Z,0.00
2019-03-08T05:19:11.775Z,0.00
2019-03-08T05:20:11.810Z,0.00
2019-03-08T05:21:11.824Z,0.00
2019-03-08T05:22:11.846Z,0.00
2019-03-08T05:23:11.870Z,0.00
2019-03-08T05:24:11.895Z,0.00
2019-03-08T05:25:11.921Z,0.00
2019-03-08T05:26:11.950Z,0.00
2019-03-08T05:27:11.965Z,0.00
2019-03-08T05:28:12.001Z,0.00
2019-03-08T05:29:12.016Z,0.00
2019-03-08T05:30:12.040Z,0.00
2019-03-08T05:31:12.065Z,0.00
2019-03-08T05:32:12.092Z,0.00
2019-03-08T05:33:12.110Z,0.00
2019-03-08T05:34:12.138Z,0.00
2019-03-08T05:35:12.162Z,0.00
2019-03-08T05:36:12.184Z,0.00
2019-03-08T05:37:12.210Z,0.00
2019-03-08T05:38:12.228Z,0.00
2019-03-08T05:39:12.253Z,0.00
2019-03-08T05:40:12.278Z,0.00
2019-03-08T05:41:12.300Z,0.00
2019-03-08T05:42:12.327Z,0.00
2019-03-08T05:43:12.348Z,0.00
2019-03-08T05:44:12.378Z,0.00
2019-03-08T05:45:12.408Z,0.00
2019-03-08T05:46:12.425Z,0.00
2019-03-08T05:47:12.448Z,0.00
2019-03-08T05:48:12.469Z,0.00
2019-03-08T05:49:12.502Z,0.00
2019-03-08T05:50:12.524Z,0.00
2019-03-08T05:51:12.545Z,0.00
2019-03-08T05:52:12.565Z,0.00
2019-03-08T05:53:12.587Z,0.00
2019-03-08T05:54:12.615Z,0.00
2019-03-08T05:55:12.636Z,0.00
2019-03-08T05:56:12.663Z,0.00
2019-03-08T05:57:12.686Z,0.00
2019-03-08T05:58:12.708Z,0.00
2019-03-08T05:59:12.738Z,0.00
2019-03-08T06:00:12.759Z,0.00
2019-03-08T06:01:12.779Z,0.00
2019-03-08T06:02:12.814Z,0.00
2019-03-08T06:03:12.837Z,0.00
2019-03-08T06:04:12.853Z,0.00
2019-03-08T06:05:12.878Z,0.00
2019-03-08T06:06:12.900Z,0.00
2019-03-08T06:07:12.942Z,0.00
2019-03-08T06:08:12.951Z,0.00
2019-03-08T06:09:12.975Z,0.00
2019-03-08T06:10:12.995Z,0.00
2019-03-08T06:11:13.029Z,0.00
2019-03-08T06:12:13.043Z,0.00
2019-03-08T06:13:13.070Z,0.00
2019-03-08T06:14:13.100Z,0.00
2019-03-08T06:15:13.118Z,0.00
2019-03-08T06:16:13.141Z,5.63
2019-03-08T06:17:13.163Z,5.63
2019-03-08T06:18:13.189Z,5.63
2019-03-08T06:19:13.212Z,5.63
2019-03-08T06:20:13.236Z,5.63
2019-03-08T06:21:13.259Z,5.63
2019-03-08T06:22:13.285Z,5.63
2019-03-08T06:23:13.306Z,5.63
2019-03-08T06:24:13.334Z,11.25
2019-03-08T06:25:13.360Z,11.25
2019-03-08T06:26:13.384Z,11.25
2019-03-08T06:27:13.406Z,11.25
2019-03-08T06:28:13.430Z,11.25
2019-03-08T06:29:13.452Z,16.88
2019-03-08T06:30:13.478Z,16.88
2019-03-08T06:31:13.499Z,16.88
2019-03-08T06:32:13.523Z,16.88
2019-03-08T06:33:13.546Z,16.88
2019-03-08T06:34:13.573Z,16.88
2019-03-08T06:35:13.594Z,16.88
2019-03-08T06:36:13.620Z,16.88
2019-03-08T06:37:13.718Z,16.88
2019-03-08T06:38:13.682Z,16.88
2019-03-08T06:39:13.700Z,16.88
2019-03-08T06:40:13.716Z,16.88
2019-03-08T06:41:13.742Z,16.88
2019-03-08T06:42:13.772Z,16.88
2019-03-08T06:43:13.804Z,16.88
2019-03-08T06:44:13.819Z,16.88
2019-03-08T06:45:13.835Z,16.88
2019-03-08T06:46:13.857Z,16.88
2019-03-08T06:47:13.881Z,22.50
2019-03-08T06:48:13.928Z,22.50
2019-03-08T06:49:13.929Z,16.88
2019-03-08T06:50:13.952Z,16.88
2019-03-08T06:51:13.977Z,16.88
2019-03-08T06:52:14.008Z,16.88
2019-03-08T06:53:14.026Z,16.88
2019-03-08T06:54:14.049Z,22.50
2019-03-08T06:55:14.076Z,28.13
2019-03-08T06:56:14.100Z,28.13
2019-03-08T06:57:14.127Z,28.13
2019-03-08T06:58:14.151Z,33.75
2019-03-08T06:59:14.172Z,33.75
2019-03-08T07:00:14.196Z,39.38
2019-03-08T07:01:14.225Z,39.38
2019-03-08T07:02:14.250Z,45.00
2019-03-08T07:03:14.268Z,50.63
2019-03-08T07:04:14.298Z,45.00
2019-03-08T07:05:14.316Z,50.63
2019-03-08T07:06:14.337Z,50.63
2019-03-08T07:07:14.365Z,50.63
2019-03-08T07:08:14.395Z,45.00
2019-03-08T07:09:14.411Z,45.00
2019-03-08T07:10:14.439Z,33.75
2019-03-08T07:11:14.463Z,28.13
2019-03-08T07:12:14.524Z,33.75
2019-03-08T07:13:14.515Z,33.75
2019-03-08T07:14:14.535Z,39.38
2019-03-08T07:15:14.558Z,39.38
2019-03-08T07:16:14.946Z,39.38
2019-03-08T07:17:14.604Z,39.38
2019-03-08T07:18:14.625Z,39.38
2019-03-08T07:19:14.650Z,39.38
2019-03-08T07:20:14.777Z,45.00
2019-03-08T07:21:14.699Z,45.00
2019-03-08T07:22:14.724Z,45.00
2019-03-08T07:23:14.748Z,45.00
2019-03-08T07:24:14.772Z,50.63
2019-03-08T07:25:14.794Z,61.88
2019-03-08T07:26:14.820Z,78.75
2019-03-08T07:27:14.852Z,90.00
2019-03-08T07:28:14.871Z,90.00
2019-03-08T07:29:14.890Z,78.75
2019-03-08T07:30:14.917Z,84.38
2019-03-08T07:31:14.942Z,73.13
2019-03-08T07:32:14.969Z,67.50
2019-03-08T07:33:14.988Z,73.13
2019-03-08T07:34:15.013Z,67.50
2019-03-08T07:35:15.035Z,78.75
2019-03-08T07:36:15.063Z,95.63
2019-03-08T07:37:15.088Z,95.63
2019-03-08T07:38:15.108Z,84.38
2019-03-08T07:39:15.138Z,101.25
2019-03-08T07:40:15.851Z,146.25
2019-03-08T07:41:15.188Z,168.75
2019-03-08T07:42:15.206Z,174.38
2019-03-08T07:43:15.230Z,163.13
2019-03-08T07:44:15.252Z,135.00
2019-03-08T07:45:15.311Z,112.50
2019-03-08T07:46:15.303Z,129.38
2019-03-08T07:47:15.327Z,118.13
2019-03-08T07:48:15.348Z,118.13
2019-03-08T07:49:15.375Z,129.38
2019-03-08T07:50:15.403Z,140.63
2019-03-08T07:51:15.424Z,151.88
2019-03-08T07:52:15.448Z,168.75
2019-03-08T07:53:15.472Z,180.00
2019-03-08T07:54:15.492Z,208.13
2019-03-08T07:55:15.520Z,247.50
2019-03-08T07:56:15.549Z,303.75
2019-03-08T07:57:15.566Z,320.63
2019-03-08T07:58:15.592Z,331.88
2019-03-08T07:59:15.624Z,360.00
2019-03-08T08:00:15.640Z,371.25
2019-03-08T08:01:15.666Z,388.13
2019-03-08T08:02:15.689Z,365.63
2019-03-08T08:03:16.320Z,348.75
2019-03-08T08:04:18.361Z,331.88
2019-03-08T08:05:19.040Z,309.38
2019-03-08T08:06:15.787Z,298.13
2019-03-08T08:07:15.828Z,247.50
2019-03-08T08:08:15.837Z,196.88
2019-03-08T08:09:15.859Z,163.13
2019-03-08T08:10:15.884Z,129.38
2019-03-08T08:11:15.915Z,168.75
2019-03-08T08:12:15.942Z,213.75
2019-03-08T08:13:15.958Z,196.88
2019-03-08T08:14:15.986Z,129.38
2019-03-08T08:15:16.011Z,118.13
2019-03-08T08:16:16.036Z,84.38
2019-03-08T08:17:16.063Z,73.13
2019-03-08T08:18:16.085Z,106.88
2019-03-08T08:19:16.117Z,157.50
2019-03-08T08:20:16.790Z,230.63
2019-03-08T08:21:16.157Z,236.25
2019-03-08T08:22:16.182Z,315.00
2019-03-08T08:23:16.207Z,230.63
2019-03-08T08:24:16.238Z,281.25
2019-03-08T08:25:16.257Z,483.75
2019-03-08T08:26:16.290Z,663.75
2019-03-08T08:27:16.306Z,1338.75
2019-03-08T08:28:16.335Z,337.50
2019-03-08T08:29:16.357Z,421.88
2019-03-08T08:30:16.385Z,680.63
2019-03-08T08:31:16.415Z,1749.38
2019-03-08T08:32:16.433Z,1518.75
2019-03-08T08:33:16.792Z,1760.63
2019-03-08T08:34:16.485Z,1777.50
2019-03-08T08:35:16.518Z,613.13
2019-03-08T08:36:16.534Z,348.75
2019-03-08T08:37:16.559Z,292.50
2019-03-08T08:38:16.594Z,292.50
2019-03-08T08:39:16.619Z,208.13
2019-03-08T08:40:16.640Z,191.25
2019-03-08T08:41:16.664Z,303.75
2019-03-08T08:42:16.691Z,495.00
2019-03-08T08:43:16.720Z,303.75
2019-03-08T08:44:16.746Z,191.25
2019-03-08T08:45:16.772Z,168.75
2019-03-08T08:46:16.801Z,180.00
2019-03-08T08:47:16.823Z,174.38
2019-03-08T08:48:16.849Z,157.50
2019-03-08T08:49:16.877Z,225.00
2019-03-08T08:50:16.902Z,410.63
2019-03-08T08:51:16.939Z,658.13
2019-03-08T08:52:16.997Z,343.13
2019-03-08T08:53:16.982Z,331.88
2019-03-08T08:54:17.008Z,410.63
2019-03-08T08:55:17.033Z,1164.38
2019-03-08T08:56:17.058Z,601.88
2019-03-08T08:57:17.087Z,1749.38
2019-03-08T08:58:17.153Z,416.25
2019-03-08T08:59:17.146Z,1029.38
2019-03-08T09:00:17.164Z,388.13
2019-03-08T09:01:17.192Z,354.38
2019-03-08T09:02:17.222Z,281.25
2019-03-08T09:03:17.245Z,270.00
2019-03-08T09:04:17.270Z,275.63
2019-03-08T09:05:17.299Z,225.00
2019-03-08T09:06:17.323Z,163.13
2019-03-08T09:07:17.349Z,135.00
2019-03-08T09:08:17.378Z,129.38
2019-03-08T09:09:17.404Z,140.63
2019-03-08T09:10:17.427Z,168.75
2019-03-08T09:11:17.457Z,208.13
2019-03-08T09:12:17.490Z,292.50
2019-03-08T09:13:17.509Z,382.50
2019-03-08T09:14:17.533Z,1417.50
2019-03-08T09:15:17.559Z,309.38
2019-03-08T09:16:17.594Z,213.75
2019-03-08T09:17:17.626Z,123.75
2019-03-08T09:18:17.640Z,112.50
2019-03-08T09:19:17.666Z,123.75
2019-03-08T09:20:17.690Z,163.13
2019-03-08T09:21:17.718Z,219.38
2019-03-08T09:22:17.740Z,247.50
2019-03-08T09:23:17.770Z,174.38
2019-03-08T09:24:17.793Z,129.38
2019-03-08T09:25:17.833Z,123.75
2019-03-08T09:26:17.851Z,140.63
2019-03-08T09:27:17.891Z,140.63
2019-03-08T09:28:17.899Z,135.00
2019-03-08T09:29:17.925Z,140.63
2019-03-08T09:30:17.950Z,135.00
2019-03-08T09:31:17.977Z,101.25
2019-03-08T09:32:18.002Z,112.50
2019-03-08T09:33:18.030Z,219.38
2019-03-08T09:34:18.050Z,770.63
2019-03-08T09:35:18.079Z,933.75
2019-03-08T09:36:18.104Z,697.50
2019-03-08T09:37:18.138Z,2446.88
2019-03-08T09:38:18.155Z,2351.25
2019-03-08T09:39:18.181Z,2323.13
2019-03-08T09:40:18.209Z,2362.50
2019-03-08T09:42:00.848Z,2446.88
2019-03-08T09:43:00.870Z,2486.25
2019-03-08T09:44:00.901Z,2491.88
2019-03-08T09:45:00.929Z,2525.63
2019-03-08T09:46:00.959Z,2525.63
2019-03-08T09:47:00.981Z,2565.00
2019-03-08T09:48:01.017Z,1563.75
2019-03-08T09:49:01.035Z,810.00
2019-03-08T09:50:01.068Z,2565.00
2019-03-08T09:51:01.096Z,888.75
2019-03-08T09:52:03.746Z,2576.25
2019-03-08T09:53:01.151Z,967.50
2019-03-08T09:54:01.732Z,506.25
2019-03-08T09:55:01.216Z,2199.38
2019-03-08T09:56:01.245Z,2373.75
2019-03-08T09:57:01.276Z,2739.38
2019-03-08T09:58:01.297Z,1940.63
2019-03-08T09:59:01.327Z,2677.50
2019-03-08T10:00:01.761Z,2688.75
2019-03-08T10:01:01.393Z,2722.50
2019-03-08T10:02:01.415Z,1839.38
2019-03-08T10:03:01.457Z,511.88
2019-03-08T10:04:01.476Z,2008.13
2019-03-08T10:05:01.512Z,1642.50
2019-03-08T10:06:01.545Z,2536.88
2019-03-08T10:07:01.572Z,2587.50
2019-03-08T10:08:01.606Z,2491.88
2019-03-08T10:09:01.640Z,2559.38
2019-03-08T10:10:01.668Z,2531.25
2019-03-08T10:11:01.701Z,2491.88
2019-03-08T10:12:01.732Z,2491.88
2019-03-08T10:13:01.763Z,2491.88
2019-03-08T10:14:01.796Z,2553.75
2019-03-08T10:15:01.834Z,2565.00
2019-03-08T10:16:01.862Z,2559.38
2019-03-08T10:17:01.893Z,2638.13
2019-03-08T10:18:01.924Z,2576.25
2019-03-08T10:19:01.964Z,2728.13
2019-03-08T10:20:01.993Z,2739.38
2019-03-08T10:21:02.023Z,2722.50
2019-03-08T10:22:02.066Z,2418.75
2019-03-08T10:23:02.091Z,2587.50
2019-03-08T10:24:02.977Z,736.88
2019-03-08T10:25:02.158Z,2598.75
2019-03-08T10:26:02.196Z,2711.25
2019-03-08T10:27:02.225Z,1164.38
2019-03-08T10:28:02.267Z,365.63
2019-03-08T10:29:02.291Z,393.75
2019-03-08T10:30:02.335Z,630.00
2019-03-08T10:31:02.361Z,528.75
2019-03-08T10:32:02.401Z,483.75
2019-03-08T10:33:02.437Z,714.38
2019-03-08T10:34:02.462Z,410.63
2019-03-08T10:35:02.497Z,416.25
2019-03-08T10:36:02.529Z,360.00
2019-03-08T10:37:02.565Z,365.63
2019-03-08T10:38:02.602Z,388.13
2019-03-08T10:39:02.631Z,365.63
2019-03-08T10:40:02.661Z,365.63
2019-03-08T10:41:02.692Z,354.38
2019-03-08T10:42:02.723Z,315.00
2019-03-08T10:43:02.755Z,247.50
2019-03-08T10:44:08.940Z,258.75
2019-03-08T10:45:02.817Z,438.75
2019-03-08T10:46:02.842Z,365.63
2019-03-08T10:47:02.877Z,230.63
2019-03-08T10:48:02.903Z,208.13
2019-03-08T10:49:03.691Z,225.00
2019-03-08T10:50:02.989Z,303.75
2019-03-08T10:51:02.995Z,466.88
2019-03-08T10:52:03.024Z,2604.38
2019-03-08T10:53:03.061Z,2643.75
2019-03-08T10:54:03.081Z,793.13
2019-03-08T10:55:03.115Z,2604.38
2019-03-08T10:56:03.140Z,2475.00
2019-03-08T10:57:03.170Z,2536.88
2019-03-08T10:58:03.200Z,393.75
2019-03-08T10:59:03.234Z,579.38
2019-03-08T11:00:03.265Z,618.75
2019-03-08T11:01:03.292Z,2458.13
2019-03-08T11:02:03.317Z,405.00
2019-03-08T11:03:03.349Z,365.63
2019-03-08T11:04:03.377Z,343.13
2019-03-08T11:05:03.407Z,427.50
2019-03-08T11:06:03.434Z,765.00
2019-03-08T11:07:04.063Z,2520.00
2019-03-08T11:08:03.502Z,2503.13
2019-03-08T11:09:03.524Z,2463.75
2019-03-08T11:10:03.551Z,1237.50
2019-03-08T11:11:06.622Z,2638.13
2019-03-08T11:12:03.611Z,2531.25
2019-03-08T11:13:03.639Z,472.50
2019-03-08T11:14:03.676Z,326.25
2019-03-08T11:15:03.703Z,270.00
2019-03-08T11:16:03.730Z,371.25
2019-03-08T11:17:03.760Z,2525.63
2019-03-08T11:18:03.790Z,2531.25
2019-03-08T11:19:08.797Z,2525.63
2019-03-08T11:20:03.846Z,2536.88
2019-03-08T11:21:03.877Z,2559.38
2019-03-08T11:22:03.909Z,1333.13
2019-03-08T11:23:03.938Z,1873.13
2019-03-08T11:24:03.975Z,2368.13
2019-03-08T11:25:08.231Z,2542.50
2019-03-08T11:26:04.027Z,2435.63
2019-03-08T11:27:05.163Z,1968.75
2019-03-08T11:28:04.092Z,2311.88
2019-03-08T11:29:04.124Z,641.25
2019-03-08T11:30:04.155Z,849.38
2019-03-08T11:31:04.193Z,573.75
2019-03-08T11:32:04.218Z,607.50
2019-03-08T11:33:04.247Z,517.50
2019-03-08T11:34:04.280Z,624.38
2019-03-08T11:35:04.309Z,495.00
2019-03-08T11:36:04.342Z,703.13
2019-03-08T11:37:04.382Z,579.38
2019-03-08T11:38:04.404Z,1001.25
2019-03-08T11:39:04.437Z,1918.13
2019-03-08T11:40:04.469Z,905.63
2019-03-08T11:41:04.496Z,1096.88
2019-03-08T11:42:04.531Z,658.13
2019-03-08T11:43:04.565Z,540.00
2019-03-08T11:44:04.599Z,455.63
2019-03-08T11:45:04.626Z,376.88
2019-03-08T11:46:04.651Z,309.38
2019-03-08T11:47:04.707Z,258.75
2019-03-08T11:48:04.719Z,230.63
2019-03-08T11:49:04.749Z,213.75
2019-03-08T11:50:04.782Z,196.88
2019-03-08T11:51:04.805Z,180.00
2019-03-08T11:52:04.839Z,180.00
2019-03-08T11:53:04.863Z,191.25
2019-03-08T11:54:04.893Z,180.00
2019-03-08T11:55:04.922Z,174.38
2019-03-08T11:56:08.992Z,196.88
2019-03-08T11:57:04.982Z,202.50
2019-03-08T11:58:05.008Z,180.00
2019-03-08T11:59:05.038Z,135.00
2019-03-08T12:00:05.069Z,95.63
2019-03-08T12:01:05.101Z,78.75
2019-03-08T12:02:05.670Z,67.50
2019-03-08T12:03:05.154Z,61.88
2019-03-08T12:04:05.184Z,67.50
2019-03-08T12:05:05.211Z,67.50
2019-03-08T12:06:05.238Z,61.88
2019-03-08T12:07:05.267Z,61.88
2019-03-08T12:08:05.300Z,67.50
2019-03-08T12:09:05.322Z,84.38
2019-03-08T12:10:05.350Z,106.88
2019-03-08T12:11:05.376Z,123.75
2019-03-08T12:12:05.402Z,135.00
2019-03-08T12:13:05.430Z,135.00
2019-03-08T12:14:05.457Z,151.88
2019-03-08T12:15:05.488Z,196.88
2019-03-08T12:16:05.514Z,264.38
2019-03-08T12:17:05.540Z,275.63
2019-03-08T12:18:05.566Z,264.38
2019-03-08T12:19:05.594Z,253.13
2019-03-08T12:20:05.618Z,326.25
2019-03-08T12:21:05.651Z,438.75
2019-03-08T12:22:05.676Z,1659.38
2019-03-08T12:23:05.708Z,472.50
2019-03-08T12:24:05.732Z,365.63
2019-03-08T12:25:05.753Z,303.75
2019-03-08T12:26:05.799Z,247.50
2019-03-08T12:27:05.807Z,225.00
2019-03-08T12:28:05.833Z,219.38
2019-03-08T12:29:05.867Z,230.63
2019-03-08T12:30:05.888Z,399.38
2019-03-08T12:31:05.915Z,376.88
2019-03-08T12:32:05.943Z,815.63
2019-03-08T12:33:05.968Z,309.38
2019-03-08T12:34:05.997Z,258.75
2019-03-08T12:35:06.018Z,230.63
2019-03-08T12:36:06.048Z,219.38
2019-03-08T12:37:06.074Z,202.50
2019-03-08T12:38:06.099Z,180.00
2019-03-08T12:39:06.134Z,157.50
2019-03-08T12:40:06.155Z,140.63
2019-03-08T12:41:06.182Z,112.50
2019-03-08T12:42:06.206Z,90.00
2019-03-08T12:43:08.285Z,73.13
2019-03-08T12:44:06.265Z,67.50
2019-03-08T12:45:06.289Z,73.13
2019-03-08T12:46:06.319Z,101.25
2019-03-08T12:47:06.342Z,135.00
2019-03-08T12:48:06.366Z,168.75
2019-03-08T12:49:06.390Z,168.75
2019-03-08T12:50:06.420Z,151.88
2019-03-08T12:51:06.445Z,202.50
2019-03-08T12:52:06.468Z,1355.63
2019-03-08T12:53:06.498Z,675.00